createdAt,value
2018-05-09T00:00:08.261Z,101613.18
2018-05-09T00:01:45.160Z,101612.66
2018-05-09T00:03:21.569Z,101634.13
2018-05-09T00:04:59.065Z,101627.47
2018-05-09T00:06:35.459Z,101635.50
2018-05-09T00:08:11.883Z,101614.48
2018-05-09T00:09:48.241Z,101637.33
2018-05-09T00:11:25.015Z,101669.05
2018-05-09T00:13:01.621Z,101687.31
2018-05-09T00:14:38.370Z,101709.67
2018-05-09T00:16:15.646Z,101738.70
2018-05-09T00:17:52.866Z,101765.55
2018-05-09T00:19:29.269Z,101760.62
2018-05-09T00:21:05.722Z,101747.72
2018-05-09T00:22:43.698Z,101758.41
2018-05-09T00:24:20.783Z,101766.48
2018-05-09T00:25:58.864Z,101765.58
2018-05-09T00:27:35.215Z,101768.28
2018-05-09T00:29:11.483Z,101768.28
2018-05-09T00:30:48.639Z,101781.66
2018-05-09T00:32:24.932Z,101783.91
2018-05-09T00:34:02.043Z,101809.87
2018-05-09T00:35:38.450Z,101782.16
2018-05-09T00:37:15.251Z,101742.43
2018-05-09T00:38:51.531Z,101737.04
2018-05-09T00:40:28.746Z,101763.83
2018-05-09T00:42:05.245Z,101831.36
2018-05-09T00:43:42.025Z,101829.56
2018-05-09T00:45:18.931Z,101813.44
2018-05-09T00:46:55.893Z,101796.93
2018-05-09T00:48:33.108Z,101791.59
2018-05-09T00:50:10.395Z,101788.05
2018-05-09T00:51:47.209Z,101792.94
2018-05-09T00:53:23.467Z,101815.76
2018-05-09T00:55:01.065Z,101791.17
2018-05-09T00:56:37.817Z,101760.81
2018-05-09T00:58:14.025Z,101747.41
2018-05-09T00:59:51.126Z,101767.97
2018-05-09T01:01:28.928Z,101758.16
2018-05-09T01:03:05.799Z,101778.70
2018-05-09T01:04:42.185Z,101769.72
2018-05-09T01:06:18.436Z,101791.17
2018-05-09T01:07:55.933Z,101818.95
2018-05-09T01:09:33.053Z,101763.05
2018-05-09T01:11:09.442Z,101697.40
2018-05-09T01:12:46.004Z,101628.20
2018-05-09T01:14:22.273Z,101653.68
2018-05-09T01:15:59.411Z,101718.48
2018-05-09T01:17:36.113Z,101662.11
2018-05-09T01:19:13.352Z,101646.94
2018-05-09T01:20:49.696Z,101636.69
2018-05-09T01:22:26.934Z,101633.16
2018-05-09T01:24:03.363Z,101664.37
2018-05-09T01:25:40.607Z,101627.80
2018-05-09T01:27:17.959Z,101596.11
2018-05-09T01:28:55.117Z,101582.71
2018-05-09T01:30:31.782Z,101590.78
2018-05-09T01:32:08.068Z,101577.38
2018-05-09T01:33:44.479Z,101588.12
2018-05-09T01:35:21.442Z,101713.06
2018-05-09T01:36:57.942Z,101783.73
2018-05-09T01:38:34.244Z,101788.63
2018-05-09T01:40:11.339Z,101746.98
2018-05-09T01:41:47.635Z,101694.74
2018-05-09T01:43:24.628Z,101618.84
2018-05-09T01:45:01.379Z,101541.70
2018-05-09T01:46:38.983Z,101448.88
2018-05-09T01:48:15.686Z,101393.56
2018-05-09T01:49:52.490Z,101316.48
2018-05-09T01:51:28.895Z,101226.09
2018-05-09T01:53:05.434Z,101173.06
2018-05-09T01:54:42.623Z,101163.75
2018-05-09T01:56:19.042Z,101122.23
2018-05-09T01:57:55.871Z,101119.62
2018-05-09T01:59:32.349Z,101084.47
2018-05-09T02:01:09.617Z,101068.03
2018-05-09T02:02:45.937Z,101093.81
2018-05-09T02:04:23.083Z,101097.01
2018-05-09T02:05:59.527Z,101111.66
2018-05-09T02:07:36.217Z,101153.50
2018-05-09T02:09:12.512Z,101198.05
2018-05-09T02:10:48.957Z,101225.20
2018-05-09T02:12:25.274Z,101215.45
2018-05-09T02:14:02.081Z,101215.03
2018-05-09T02:15:38.896Z,101215.89
2018-05-09T02:17:15.300Z,101214.13
2018-05-09T02:18:51.858Z,101194.53
2018-05-09T02:20:28.642Z,101159.78
2018-05-09T02:22:04.909Z,101165.19
2018-05-09T02:23:41.190Z,101180.28
2018-05-09T02:25:17.503Z,101208.37
2018-05-09T02:26:53.875Z,101224.84
2018-05-09T02:28:30.437Z,101241.77
2018-05-09T02:30:08.118Z,101231.08
2018-05-09T02:33:24.191Z,101202.58
2018-05-09T02:35:02.132Z,101209.77
2018-05-09T02:36:38.836Z,101177.75
2018-05-09T02:38:15.409Z,101121.11
2018-05-09T02:39:52.983Z,101084.63
2018-05-09T02:41:29.276Z,101048.66
2018-05-09T02:43:06.331Z,101014.39
2018-05-09T02:44:42.649Z,101017.58
2018-05-09T02:46:20.143Z,100994.38
2018-05-09T02:47:56.433Z,100965.02
2018-05-09T02:49:32.766Z,100945.45
2018-05-09T02:51:09.148Z,100893.05
2018-05-09T02:52:45.957Z,100877.48
2018-05-09T02:54:24.144Z,100861.91
2018-05-09T02:56:00.647Z,100828.52
2018-05-09T02:57:36.989Z,100850.80
2018-05-09T02:59:14.456Z,100881.55
2018-05-09T03:00:51.252Z,100945.03
2018-05-09T03:02:28.670Z,100992.62
2018-05-09T03:04:04.999Z,101007.78
2018-05-09T03:05:42.557Z,101017.58
2018-05-09T03:07:18.918Z,101022.52
2018-05-09T03:08:55.455Z,101025.16
2018-05-09T03:10:31.725Z,101034.55
2018-05-09T03:12:08.862Z,101044.78
2018-05-09T03:13:45.199Z,101043.84
2018-05-09T03:15:21.703Z,101056.77
2018-05-09T03:16:58.204Z,101091.45
2018-05-09T03:18:34.979Z,101100.38
2018-05-09T03:20:11.392Z,101100.00
2018-05-09T03:21:47.945Z,101094.16
2018-05-09T03:23:25.022Z,101076.78
2018-05-09T03:25:01.906Z,101079.95
2018-05-09T03:26:38.233Z,101080.41
2018-05-09T03:28:14.509Z,101069.29
2018-05-09T03:29:50.980Z,101073.75
2018-05-09T03:31:27.977Z,101092.42
2018-05-09T03:33:04.433Z,101100.88
2018-05-09T03:34:40.971Z,101107.16
2018-05-09T03:36:17.281Z,101108.95
2018-05-09T03:37:54.244Z,101119.62
2018-05-09T03:39:30.572Z,101089.40
2018-05-09T03:41:07.209Z,101058.23
2018-05-09T03:42:43.405Z,101044.91
2018-05-09T03:44:20.939Z,101015.58
2018-05-09T03:45:57.688Z,100968.00
2018-05-09T03:47:34.279Z,101005.41
2018-05-09T03:49:10.527Z,101031.23
2018-05-09T03:50:47.338Z,101034.75
2018-05-09T03:52:23.747Z,101040.53
2018-05-09T03:54:00.115Z,101036.59
2018-05-09T03:55:37.292Z,101018.81
2018-05-09T03:57:14.342Z,101037.92
2018-05-09T03:58:50.756Z,101082.78
2018-05-09T04:00:28.401Z,101116.20
2018-05-09T04:02:18.712Z,101126.91
2018-05-09T04:06:15.888Z,101145.17
2018-05-09T04:10:02.587Z,101175.95
2018-05-09T04:11:38.904Z,100867.16
2018-05-09T04:13:15.527Z,100882.78
2018-05-09T04:14:52.854Z,100907.73
2018-05-09T04:16:30.276Z,100857.48
2018-05-09T04:18:08.231Z,100762.30
2018-05-09T04:19:46.292Z,100749.05
2018-05-09T04:21:24.466Z,100630.45
2018-05-09T04:23:01.599Z,100577.19
2018-05-09T04:24:38.090Z,100570.56
2018-05-09T04:26:14.653Z,100636.28
2018-05-09T04:27:51.025Z,100715.78
2018-05-09T04:29:28.040Z,100786.84
2018-05-09T04:31:06.318Z,100793.47
2018-05-09T04:32:42.700Z,100782.84
2018-05-09T04:34:19.050Z,100770.39
2018-05-09T04:35:57.233Z,100739.73
2018-05-09T04:37:33.570Z,100719.77
2018-05-09T04:39:10.256Z,100704.71
2018-05-09T04:40:46.842Z,100670.92
2018-05-09T04:42:23.515Z,100679.85
2018-05-09T04:44:00.575Z,100625.59
2018-05-09T04:45:37.017Z,100596.77
2018-05-09T04:47:14.365Z,100568.44
2018-05-09T04:48:51.780Z,100529.78
2018-05-09T04:50:28.088Z,100548.48
2018-05-09T04:52:05.264Z,100628.41
2018-05-09T04:53:41.615Z,100653.67
2018-05-09T04:55:18.444Z,100682.57
2018-05-09T04:57:01.351Z,100744.25
2018-05-09T04:58:37.611Z,100806.05
2018-05-09T05:00:14.152Z,100872.75
2018-05-09T05:01:52.176Z,100956.77
2018-05-09T05:03:28.635Z,101030.60
2018-05-09T05:05:05.773Z,101109.38
2018-05-09T05:06:42.280Z,101189.53
2018-05-09T05:08:18.573Z,101271.55
2018-05-09T05:09:55.007Z,101425.32
2018-05-09T05:11:31.790Z,101553.89
2018-05-09T05:13:08.250Z,101516.33
2018-05-09T05:14:45.015Z,101515.06
2018-05-09T05:16:22.071Z,101520.83
2018-05-09T05:17:58.711Z,101549.90
2018-05-09T05:19:35.060Z,101543.58
2018-05-09T05:21:12.449Z,101542.28
2018-05-09T05:22:48.830Z,101571.38
2018-05-09T05:24:26.351Z,101569.64
2018-05-09T05:26:07.300Z,101551.27
2018-05-09T05:27:46.513Z,101617.86
2018-05-09T05:29:23.362Z,101726.83
2018-05-09T05:31:01.403Z,101785.78
2018-05-09T05:32:37.800Z,101873.89
2018-05-09T05:34:14.828Z,102119.66
2018-05-09T05:35:51.391Z,102414.49
2018-05-09T05:37:30.590Z,102579.33
2018-05-09T05:39:07.408Z,102803.06
2018-05-09T05:40:44.902Z,102945.23
2018-05-09T05:42:21.334Z,103049.17
2018-05-09T05:43:57.606Z,103055.04
2018-05-09T05:45:33.939Z,103304.25
2018-05-09T05:47:10.709Z,103457.64
2018-05-09T05:48:46.988Z,103445.42
2018-05-09T05:50:23.436Z,103231.69
2018-05-09T05:53:41.708Z,103390.48
2018-05-09T05:55:18.092Z,103498.33
2018-05-09T05:56:55.232Z,103465.83
2018-05-09T05:58:31.609Z,103536.26
2018-05-09T06:00:11.476Z,103711.98
2018-05-09T06:01:50.930Z,103916.81
2018-05-09T06:03:27.663Z,104081.56
2018-05-09T06:05:04.678Z,104111.04
2018-05-09T06:06:42.978Z,104089.74
2018-05-09T06:08:23.469Z,104051.77
2018-05-09T06:10:10.765Z,104218.90
2018-05-09T06:11:56.006Z,104495.14
2018-05-09T06:13:32.527Z,104541.90
2018-05-09T06:15:09.145Z,104426.16
2018-05-09T06:16:45.790Z,104353.09
2018-05-09T06:18:22.546Z,104384.89
2018-05-09T06:19:58.967Z,104472.02
2018-05-09T06:21:36.881Z,104360.41
2018-05-09T06:23:20.015Z,104503.81
2018-05-09T06:24:58.398Z,104502.47
2018-05-09T06:26:34.872Z,104537.45
2018-05-09T06:28:11.211Z,104641.86
2018-05-09T06:29:47.670Z,104836.36
2018-05-09T06:31:24.366Z,104951.91
2018-05-09T06:33:00.949Z,104929.14
2018-05-09T06:34:37.322Z,104857.66
2018-05-09T06:36:14.396Z,104627.77
2018-05-09T06:37:50.877Z,104394.05
2018-05-09T06:39:27.194Z,104295.17
2018-05-09T06:41:03.535Z,104172.38
2018-05-09T06:42:39.890Z,104024.30
2018-05-09T06:44:16.567Z,104041.45
2018-05-09T06:45:56.831Z,104110.70
2018-05-09T06:47:34.374Z,104121.59
2018-05-09T06:49:10.801Z,104117.53
2018-05-09T06:50:47.483Z,104171.89
2018-05-09T06:52:24.612Z,103846.90
2018-05-09T06:54:01.015Z,103592.45
2018-05-09T06:55:37.450Z,103393.94
2018-05-09T06:57:14.319Z,103579.39
2018-05-09T06:58:50.838Z,103611.41
2018-05-09T07:00:27.242Z,103539.20
2018-05-09T07:02:03.761Z,103498.06
2018-05-09T07:03:40.460Z,103465.14
2018-05-09T07:05:16.814Z,103525.64
2018-05-09T07:06:53.401Z,103443.45
2018-05-09T07:08:29.750Z,103360.05
2018-05-09T07:10:06.565Z,103494.01
2018-05-09T07:11:43.926Z,103614.08
2018-05-09T07:13:21.053Z,103650.23
2018-05-09T07:14:57.551Z,103880.77
2018-05-09T07:16:34.361Z,104119.28
2018-05-09T07:18:10.832Z,104244.73
2018-05-09T07:19:47.690Z,104335.88
2018-05-09T07:21:33.399Z,104418.93
2018-05-09T07:23:11.398Z,104422.52
2018-05-09T07:24:47.707Z,104419.85
2018-05-09T07:26:25.022Z,104320.95
2018-05-09T07:28:01.678Z,104368.11
2018-05-09T07:29:39.395Z,104483.80
2018-05-09T07:31:15.863Z,104651.31
2018-05-09T07:32:52.436Z,104531.01
2018-05-09T07:34:28.978Z,104281.95
2018-05-09T07:36:05.942Z,104416.22
2018-05-09T07:37:42.491Z,104561.44
2018-05-09T07:39:18.941Z,104683.16
2018-05-09T07:40:55.298Z,104704.92
2018-05-09T07:42:32.305Z,104665.43
2018-05-09T07:44:08.712Z,104694.48
2018-05-09T07:45:45.854Z,104521.05
2018-05-09T07:47:22.150Z,104517.86
2018-05-09T07:48:59.221Z,104677.67
2018-05-09T07:50:35.733Z,104794.47
2018-05-09T07:52:13.275Z,104781.72
2018-05-09T07:53:49.647Z,104836.28
2018-05-09T07:55:26.461Z,104840.84
2018-05-09T07:57:03.787Z,104874.02
2018-05-09T07:58:40.268Z,104901.31
2018-05-09T08:00:18.238Z,104847.20
2018-05-09T08:01:55.026Z,104881.77
2018-05-09T08:03:31.448Z,104847.66
2018-05-09T08:05:07.850Z,104591.36
2018-05-09T08:06:44.140Z,104606.36
2018-05-09T08:08:21.304Z,104515.55
2018-05-09T08:09:58.535Z,104565.50
2018-05-09T08:11:34.928Z,104546.44
2018-05-09T08:13:11.573Z,104332.23
2018-05-09T08:14:48.416Z,104196.26
2018-05-09T08:16:25.185Z,104342.25
2018-05-09T08:18:01.644Z,104090.21
2018-05-09T08:19:39.220Z,103844.94
2018-05-09T08:21:16.887Z,103599.13
2018-05-09T08:22:54.022Z,103483.13
2018-05-09T08:24:30.429Z,103370.77
2018-05-09T08:26:11.511Z,103302.62
2018-05-09T08:27:49.561Z,103460.03
2018-05-09T08:29:31.764Z,103721.03
2018-05-09T08:31:09.327Z,103622.53
2018-05-09T08:32:51.814Z,103304.84
2018-05-09T08:34:29.383Z,103108.86
2018-05-09T08:36:26.077Z,103020.98
2018-05-09T08:38:02.483Z,103093.50
2018-05-09T08:39:38.790Z,103293.09
2018-05-09T08:41:15.800Z,103263.84
2018-05-09T08:42:52.314Z,103473.95
2018-05-09T08:44:28.677Z,103839.43
2018-05-09T08:46:06.093Z,104018.59
2018-05-09T08:47:43.013Z,104205.19
2018-05-09T08:49:19.631Z,104397.95
2018-05-09T08:50:57.172Z,104546.25
2018-05-09T08:52:34.399Z,104641.22
2018-05-09T08:54:11.539Z,104499.98
2018-05-09T08:55:48.942Z,104437.38
2018-05-09T08:57:26.057Z,104665.77
2018-05-09T08:59:02.788Z,104392.05
2018-05-09T09:00:39.574Z,104344.85
2018-05-09T09:02:16.782Z,104535.39
2018-05-09T09:03:53.135Z,104633.05
2018-05-09T09:05:30.826Z,104683.45
2018-05-09T09:07:08.102Z,104714.34
2018-05-09T09:08:44.490Z,104852.07
2018-05-09T09:10:20.783Z,104930.76
2018-05-09T09:11:57.469Z,104995.37
2018-05-09T09:13:34.319Z,104946.64
2018-05-09T09:15:12.703Z,104907.08
2018-05-09T09:16:49.084Z,104868.91
2018-05-09T09:18:25.815Z,104810.23
2018-05-09T09:20:02.546Z,104650.72
2018-05-09T09:21:39.223Z,104301.23
2018-05-09T09:23:15.842Z,104177.55
2018-05-09T09:24:52.680Z,104026.25
2018-05-09T09:26:29.799Z,103916.31
2018-05-09T09:28:06.154Z,103690.63
2018-05-09T09:29:42.523Z,103544.28
2018-05-09T09:31:19.939Z,103465.27
2018-05-09T09:32:56.319Z,103485.62
2018-05-09T09:34:33.973Z,103453.56
2018-05-09T09:36:11.036Z,103598.95
2018-05-09T09:37:48.542Z,103936.59
2018-05-09T09:39:24.820Z,104170.66
2018-05-09T09:41:01.557Z,104183.80
2018-05-09T09:42:38.574Z,104022.11
2018-05-09T09:44:14.914Z,103954.20
2018-05-09T09:45:51.639Z,103897.25
2018-05-09T09:47:28.801Z,103885.00
2018-05-09T09:49:06.146Z,103987.23
2018-05-09T09:50:42.756Z,104203.26
2018-05-09T09:52:19.261Z,104237.70
2018-05-09T09:53:55.641Z,104056.95
2018-05-09T09:55:31.972Z,104206.88
2018-05-09T09:57:08.988Z,104423.59
2018-05-09T09:58:45.488Z,104285.26
2018-05-09T10:00:25.924Z,104051.95
2018-05-09T10:02:03.556Z,103960.10
2018-05-09T10:03:40.449Z,103968.22
2018-05-09T10:05:17.052Z,104015.73
2018-05-09T10:06:53.591Z,104065.07
2018-05-09T10:08:29.941Z,104244.05
2018-05-09T10:10:06.766Z,104292.98
2018-05-09T10:11:43.409Z,104226.36
2018-05-09T10:13:20.317Z,104377.36
2018-05-09T10:14:57.411Z,104410.45
2018-05-09T10:16:34.288Z,104254.88
2018-05-09T10:18:11.712Z,104086.84
2018-05-09T10:19:48.254Z,103936.98
2018-05-09T10:21:24.601Z,103903.06
2018-05-09T10:23:01.142Z,103856.92
2018-05-09T10:24:37.559Z,103887.66
2018-05-09T10:26:14.079Z,104036.91
2018-05-09T10:27:50.417Z,104016.13
2018-05-09T10:29:27.494Z,104007.08
2018-05-09T10:31:04.388Z,104036.52
2018-05-09T10:32:40.887Z,103979.49
2018-05-09T10:34:18.233Z,103925.60
2018-05-09T10:35:55.074Z,103900.27
2018-05-09T10:37:46.197Z,103951.39
2018-05-09T10:39:22.570Z,103987.59
2018-05-09T10:40:59.014Z,104000.72
2018-05-09T10:42:35.613Z,103987.58
2018-05-09T10:44:11.957Z,104077.27
2018-05-09T10:45:49.024Z,104124.34
2018-05-09T10:47:26.218Z,104011.58
2018-05-09T10:49:03.324Z,103976.28
2018-05-09T10:50:39.829Z,104175.06
2018-05-09T10:52:16.244Z,104241.20
2018-05-09T10:53:52.680Z,104177.30
2018-05-09T10:55:29.522Z,104104.42
2018-05-09T10:57:07.307Z,103989.37
2018-05-09T10:58:44.428Z,104029.63
2018-05-09T11:00:21.793Z,104102.53
2018-05-09T11:02:01.397Z,104101.63
2018-05-09T11:03:38.064Z,104195.45
2018-05-09T11:05:14.327Z,104179.55
2018-05-09T11:06:50.742Z,104297.34
2018-05-09T11:08:28.328Z,104280.61
2018-05-09T11:10:04.873Z,104232.55
2018-05-09T11:11:41.312Z,104321.47
2018-05-09T11:13:17.669Z,104329.15
2018-05-09T11:14:54.589Z,104235.27
2018-05-09T11:16:31.188Z,104174.61
2018-05-09T11:18:08.038Z,104270.20
2018-05-09T11:19:44.443Z,104417.06
2018-05-09T11:21:21.404Z,104368.55
2018-05-09T11:22:57.665Z,104243.84
2018-05-09T11:24:34.171Z,104181.35
2018-05-09T11:26:10.644Z,104279.67
2018-05-09T11:27:49.409Z,104357.68
2018-05-09T11:29:26.625Z,104237.07
2018-05-09T11:31:03.023Z,104205.78
2018-05-09T11:32:40.143Z,104128.30
2018-05-09T11:34:16.840Z,104105.22
2018-05-09T11:35:54.848Z,104278.30
2018-05-09T11:37:31.505Z,104539.13
2018-05-09T11:39:08.718Z,104582.32
2018-05-09T11:40:45.164Z,104309.55
2018-05-09T11:42:21.934Z,104242.91
2018-05-09T11:43:58.415Z,104225.70
2018-05-09T11:45:35.083Z,104158.14
2018-05-09T11:47:11.899Z,104188.06
2018-05-09T11:48:48.315Z,104202.11
2018-05-09T11:50:24.756Z,104201.66
2018-05-09T11:52:01.188Z,104449.72
2018-05-09T11:53:37.907Z,104605.45
2018-05-09T11:55:14.724Z,104633.10
2018-05-09T11:56:51.142Z,104726.27
2018-05-09T11:58:27.553Z,104778.52
2018-05-09T12:00:13.144Z,104760.28
2018-05-09T12:01:50.900Z,104560.45
2018-05-09T12:03:27.345Z,104591.33
2018-05-09T12:05:04.540Z,104541.37
2018-05-09T12:06:41.221Z,104408.84
2018-05-09T12:08:17.806Z,104414.30
2018-05-09T12:09:54.113Z,104403.39
2018-05-09T12:11:30.475Z,104337.14
2018-05-09T12:13:08.345Z,104463.26
2018-05-09T12:14:44.649Z,104537.75
2018-05-09T12:16:21.591Z,104733.01
2018-05-09T12:17:59.913Z,104756.17
2018-05-09T12:19:37.777Z,104789.41
2018-05-09T12:21:14.142Z,105035.49
2018-05-09T12:22:51.244Z,105179.38
2018-05-09T12:24:27.778Z,104998.12
2018-05-09T12:26:04.220Z,104799.82
2018-05-09T12:27:40.634Z,104851.17
2018-05-09T12:29:17.847Z,104765.69
2018-05-09T12:30:54.617Z,104632.58
2018-05-09T12:32:32.088Z,104553.13
2018-05-09T12:34:18.792Z,104413.70
2018-05-09T12:35:57.507Z,104395.58
2018-05-09T12:37:34.560Z,104490.37
2018-05-09T12:39:10.924Z,104615.27
2018-05-09T12:40:47.265Z,104555.30
2018-05-09T12:42:23.888Z,104487.19
2018-05-09T12:44:00.353Z,104473.14
2018-05-09T12:45:36.607Z,104604.34
2018-05-09T12:47:13.093Z,104629.73
2018-05-09T12:48:49.980Z,104627.03
2018-05-09T12:50:26.989Z,104791.09
2018-05-09T12:52:06.931Z,104709.70
2018-05-09T12:53:45.138Z,104743.80
2018-05-09T12:55:21.440Z,104994.38
2018-05-09T12:56:58.160Z,105145.97
2018-05-09T12:58:34.635Z,105310.94
2018-05-09T13:00:11.779Z,105412.63
2018-05-09T13:01:48.357Z,105459.23
2018-05-09T13:03:26.342Z,105248.53
2018-05-09T13:05:02.890Z,105016.73
2018-05-09T13:06:39.119Z,104858.75
2018-05-09T13:08:15.813Z,104676.94
2018-05-09T13:09:52.467Z,104726.47
2018-05-09T13:11:29.768Z,104876.52
2018-05-09T13:13:07.171Z,105027.09
2018-05-09T13:14:44.111Z,105250.32
2018-05-09T13:16:20.578Z,105304.97
2018-05-09T13:17:56.970Z,105339.64
2018-05-09T13:19:34.130Z,105465.09
2018-05-09T13:21:10.444Z,105360.61
2018-05-09T13:22:47.540Z,105192.39
2018-05-09T13:24:24.285Z,105307.23
2018-05-09T13:26:04.971Z,105212.91
2018-05-09T13:27:42.397Z,104885.08
2018-05-09T13:29:19.763Z,104805.05
2018-05-09T13:30:57.566Z,104972.41
2018-05-09T13:32:34.828Z,105135.42
2018-05-09T13:34:11.176Z,105322.25
2018-05-09T13:35:49.464Z,105216.05
2018-05-09T13:37:26.273Z,105087.06
2018-05-09T13:39:03.753Z,105108.94
2018-05-09T13:40:40.250Z,104834.98
2018-05-09T13:42:18.794Z,104651.36
2018-05-09T13:43:55.357Z,104521.00
2018-05-09T13:45:32.057Z,104486.94
2018-05-09T13:47:09.220Z,104580.43
2018-05-09T13:48:46.757Z,104615.90
2018-05-09T13:50:23.819Z,104599.09
2018-05-09T13:52:00.225Z,104786.73
2018-05-09T13:53:36.583Z,104933.62
2018-05-09T13:55:19.358Z,105086.52
2018-05-09T13:56:56.298Z,105249.20
2018-05-09T13:58:32.877Z,105341.71
2018-05-09T14:00:10.598Z,105421.56
2018-05-09T14:01:47.569Z,105495.92
2018-05-09T14:03:25.106Z,105410.59
2018-05-09T14:05:01.984Z,105506.42
2018-05-09T14:06:38.302Z,105598.16
2018-05-09T14:08:17.164Z,105646.14
2018-05-09T14:09:54.269Z,105568.94
2018-05-09T14:11:30.939Z,105240.52
2018-05-09T14:13:07.283Z,105116.53
2018-05-09T14:14:44.507Z,104989.48
2018-05-09T14:16:21.733Z,105083.73
2018-05-09T14:17:58.070Z,105327.95
2018-05-09T14:19:35.384Z,105515.03
2018-05-09T14:21:12.190Z,105572.97
2018-05-09T14:22:54.840Z,105549.67
2018-05-09T14:24:32.394Z,105363.52
2018-05-09T14:26:10.695Z,105321.99
2018-05-09T14:27:48.253Z,105492.59
2018-05-09T14:29:24.684Z,105619.08
2018-05-09T14:31:02.323Z,105752.05
2018-05-09T14:32:38.679Z,105647.41
2018-05-09T14:34:15.630Z,105371.24
2018-05-09T14:35:53.613Z,105210.73
2018-05-09T14:37:30.255Z,105105.45
2018-05-09T14:39:06.859Z,104950.23
2018-05-09T14:40:44.411Z,104828.74
2018-05-09T14:42:20.845Z,104775.98
2018-05-09T14:43:57.274Z,104631.45
2018-05-09T14:45:34.155Z,104613.73
2018-05-09T14:47:11.162Z,104629.66
2018-05-09T14:48:47.796Z,104627.81
2018-05-09T14:50:24.344Z,104850.98
2018-05-09T14:52:00.664Z,104907.87
2018-05-09T14:53:37.590Z,104751.84
2018-05-09T14:55:14.774Z,104689.58
2018-05-09T14:56:51.979Z,104721.41
2018-05-09T14:58:28.802Z,104926.94
2018-05-09T15:00:07.421Z,104671.40
2018-05-09T15:01:44.129Z,104557.31
2018-05-09T15:03:20.587Z,104528.70
2018-05-09T15:04:57.131Z,104386.22
2018-05-09T15:06:40.014Z,104358.52
2018-05-09T15:08:16.421Z,104522.81
2018-05-09T15:09:52.753Z,104597.23
2018-05-09T15:11:29.791Z,104556.39
2018-05-09T15:13:07.377Z,104487.81
2018-05-09T15:14:46.069Z,104509.62
2018-05-09T15:16:24.425Z,104674.94
2018-05-09T15:18:01.312Z,104541.34
2018-05-09T15:19:38.671Z,104532.75
2018-05-09T15:21:16.145Z,104507.31
2018-05-09T15:22:54.955Z,104397.47
2018-05-09T15:24:32.192Z,104362.98
2018-05-09T15:26:09.397Z,104348.87
2018-05-09T15:27:45.986Z,104340.23
2018-05-09T15:29:22.668Z,104267.23
2018-05-09T15:30:59.429Z,104412.39
2018-05-09T15:32:35.974Z,104301.69
2018-05-09T15:34:12.411Z,104251.77
2018-05-09T15:35:48.855Z,104244.53
2018-05-09T15:37:25.249Z,104229.56
2018-05-09T15:39:02.452Z,104271.73
2018-05-09T15:40:38.761Z,104372.92
2018-05-09T15:42:16.210Z,104334.27
2018-05-09T15:43:52.655Z,104340.19
2018-05-09T15:45:29.736Z,104301.17
2018-05-09T15:47:06.947Z,104288.05
2018-05-09T15:48:43.427Z,104239.08
2018-05-09T15:50:20.217Z,104301.14
2018-05-09T15:51:57.041Z,104365.14
2018-05-09T15:53:33.684Z,104392.33
2018-05-09T15:55:10.117Z,104352.88
2018-05-09T15:56:48.035Z,104507.61
2018-05-09T15:58:28.889Z,104413.18
2018-05-09T16:00:07.403Z,104327.02
2018-05-09T16:01:44.133Z,104382.80
2018-05-09T16:03:20.728Z,104350.61
2018-05-09T16:04:58.155Z,104251.25
2018-05-09T16:06:35.645Z,104177.35
2018-05-09T16:08:12.000Z,104157.91
2018-05-09T16:09:48.881Z,104178.27
2018-05-09T16:11:25.138Z,104228.11
2018-05-09T16:13:01.587Z,104336.98
2018-05-09T16:14:38.170Z,104548.00
2018-05-09T16:16:15.130Z,104443.55
2018-05-09T16:17:52.107Z,104325.14
2018-05-09T16:19:28.735Z,104344.68
2018-05-09T16:21:05.232Z,104334.64
2018-05-09T16:22:42.186Z,104359.62
2018-05-09T16:24:18.678Z,104409.48
2018-05-09T16:25:55.165Z,104458.04
2018-05-09T16:27:32.904Z,104445.80
2018-05-09T16:29:09.882Z,104438.09
2018-05-09T16:30:46.873Z,104419.94
2018-05-09T16:32:23.379Z,104333.28
2018-05-09T16:33:59.845Z,104320.11
2018-05-09T16:35:38.318Z,104305.10
2018-05-09T16:37:15.289Z,104341.89
2018-05-09T16:38:54.243Z,104392.72
2018-05-09T16:40:31.761Z,104439.87
2018-05-09T16:42:09.497Z,104458.92
2018-05-09T16:43:46.715Z,104492.06
2018-05-09T16:45:23.486Z,104478.89
2018-05-09T16:47:00.051Z,104477.05
2018-05-09T16:50:59.895Z,104517.50
2018-05-09T16:52:39.116Z,104435.78
2018-05-09T16:54:16.016Z,104409.43
2018-05-09T16:55:52.483Z,104410.34
2018-05-09T16:57:29.509Z,104367.27
2018-05-09T16:59:06.858Z,104379.52
2018-05-09T17:00:44.030Z,104394.05
2018-05-09T17:02:20.483Z,104399.88
2018-05-09T17:03:57.337Z,104371.30
2018-05-09T17:05:34.492Z,104416.20
2018-05-09T17:07:10.973Z,104432.55
2018-05-09T17:08:47.451Z,104450.22
2018-05-09T17:10:24.980Z,104456.52
2018-05-09T17:12:08.044Z,104489.70
2018-05-09T17:13:45.459Z,104536.92
2018-05-09T17:15:22.411Z,104586.92
2018-05-09T17:16:58.779Z,104648.69
2018-05-09T17:18:35.357Z,104704.09
2018-05-09T17:20:11.817Z,104750.89
2018-05-09T17:22:08.444Z,104730.91
2018-05-09T17:23:44.861Z,104720.48
2018-05-09T17:25:21.400Z,104704.55
2018-05-09T17:26:57.801Z,104645.48
2018-05-09T17:28:34.803Z,104570.12
2018-05-09T17:30:14.447Z,104739.55
2018-05-09T17:31:51.805Z,104911.47
2018-05-09T17:33:28.434Z,105008.84
2018-05-09T17:35:05.378Z,104985.18
2018-05-09T17:36:41.897Z,104873.28
2018-05-09T17:38:19.062Z,104788.67
2018-05-09T17:39:56.249Z,104619.58
2018-05-09T17:41:33.136Z,104500.99
2018-05-09T17:43:09.822Z,104544.63
2018-05-09T17:44:47.056Z,104582.34
2018-05-09T17:46:23.675Z,104588.70
2018-05-09T17:48:00.472Z,104641.38
2018-05-09T17:49:37.998Z,104745.91
2018-05-09T17:51:14.645Z,104847.28
2018-05-09T17:52:51.464Z,104774.97
2018-05-09T17:54:28.303Z,104700.86
2018-05-09T17:56:04.863Z,104635.45
2018-05-09T17:57:41.441Z,104570.92
2018-05-09T17:59:17.778Z,104513.23
2018-05-09T18:00:55.339Z,104465.60
2018-05-09T18:02:31.859Z,104423.81
2018-05-09T18:04:09.102Z,104448.84
2018-05-09T18:05:46.371Z,104407.95
2018-05-09T18:07:23.384Z,104295.88
2018-05-09T18:13:54.252Z,104199.80
2018-05-09T18:15:30.690Z,104038.42
2018-05-09T18:17:07.215Z,103987.73
2018-05-09T18:18:44.726Z,103984.55
2018-05-09T18:20:21.329Z,103984.55
2018-05-09T18:21:58.532Z,103992.25
2018-05-09T18:23:34.920Z,103981.85
2018-05-09T18:25:11.770Z,103975.50
2018-05-09T18:26:48.182Z,103935.23
2018-05-09T18:28:25.429Z,103922.97
2018-05-09T18:30:01.887Z,103908.98
2018-05-09T18:31:40.476Z,103891.30
2018-05-09T18:33:16.919Z,103859.20
2018-05-09T18:34:53.284Z,103839.77
2018-05-09T18:36:29.747Z,103804.00
2018-05-09T18:38:06.917Z,103780.94
2018-05-09T18:39:43.770Z,103746.15
2018-05-09T18:41:20.143Z,103747.02
2018-05-09T18:42:57.268Z,103754.23